Time;durP1;ratioP1;P1;durP2;ratioP2;P2;SDS_P1;SDS_P2;PMS_P1;PMS_P2;Temp;Humidity;BMP_temperature;BMP_pressure;BME280_temperature;BME280_humidity;BME280_pressure;Samples;Min_cycle;Max_cycle;Signal;HPM_P1;HPM_P2
2023/01/26 00:01:32;;;;;;;6.88;2.67;;;;;;;-9.36;75.85;99171.63;4942943;27;20067;-63
2023/01/26 00:04:02;;;;;;;9.05;2.80;;;;;;;-9.25;76.20;99175.50;4943579;28;20054;-61
2023/01/26 00:06:34;;;;;;;4.80;2.30;;;;;;;-9.22;75.71;99170.56;4932880;27;20735;-64
2023/01/26 00:09:05;;;;;;;7.15;2.75;;;;;;;-9.46;75.56;99134.06;4918447;28;20051;-62
2023/01/26 00:11:36;;;;;;;6.78;1.98;;;;;;;-9.21;75.63;99182.44;4942229;28;20946;-63
2023/01/26 00:14:06;;;;;;;5.60;1.90;;;;;;;-9.25;75.21;99190.69;4904498;28;20091;-63
2023/01/26 00:16:42;;;;;;;4.15;2.00;;;;;;;-9.28;75.02;99188.03;4963367;28;20077;-63
2023/01/26 00:19:13;;;;;;;5.80;1.85;;;;;;;-9.52;74.54;99138.84;4929026;28;20043;-61
2023/01/26 00:22:08;;;;;;;12.48;2.58;;;;;;;-8.90;74.57;99196.44;4926003;28;20054;-62
2023/01/26 00:24:38;;;;;;;8.00;2.15;;;;;;;-8.81;73.05;99199.38;4921358;28;20091;-62
2023/01/26 00:27:08;;;;;;;6.30;2.42;;;;;;;-8.82;72.52;99187.50;4932258;28;20077;-63
2023/01/26 00:29:39;;;;;;;10.20;2.75;;;;;;;-8.69;72.36;99199.88;4932071;28;20097;-61
2023/01/26 00:32:09;;;;;;;9.35;2.85;;;;;;;-8.59;71.11;99201.13;4930985;28;20138;-63
2023/01/26 00:34:40;;;;;;;7.15;2.30;;;;;;;-8.56;69.53;99205.47;4938374;28;21542;-63
2023/01/26 00:37:12;;;;;;;6.15;2.13;;;;;;;-8.49;69.38;99207.47;4936668;28;20037;-61
2023/01/26 00:39:42;;;;;;;7.50;2.03;;;;;;;-8.41;68.50;99210.31;4932507;28;20139;-62
2023/01/26 00:42:14;;;;;;;7.85;2.08;;;;;;;-8.51;66.52;99198.94;4931962;28;20048;-63
2023/01/26 00:44:45;;;;;;;6.25;2.50;;;;;;;-8.35;67.97;99226.63;4931435;28;20624;-63
2023/01/26 00:47:16;;;;;;;6.25;2.00;;;;;;;-8.60;68.41;99112.44;4932068;28;20821;-64
2023/01/26 00:49:46;;;;;;;6.53;2.47;;;;;;;-7.88;66.80;99222.63;4932699;28;20195;-65
2023/01/26 00:52:18;;;;;;;11.10;2.28;;;;;;;-7.73;64.67;99229.13;4931424;28;20064;-64
2023/01/26 00:54:49;;;;;;;6.30;2.83;;;;;;;-7.67;63.53;99234.44;4931223;28;20382;-62
2023/01/26 00:57:19;;;;;;;5.85;1.90;;;;;;;-7.70;62.36;99235.16;4931452;28;20118;-62
2023/01/26 00:59:50;;;;;;;8.30;2.22;;;;;;;-7.99;61.50;99244.13;4928881;28;20134;-61
2023/01/26 01:02:20;;;;;;;7.80;2.00;;;;;;;-8.09;62.19;99234.44;4937062;28;21194;-61
2023/01/26 01:04:51;;;;;;;12.32;2.28;;;;;;;-7.99;62.47;99221.31;4933651;28;20061;-62
2023/01/26 01:07:23;;;;;;;4.43;1.90;;;;;;;-7.94;61.48;99235.03;4931779;28;20048;-61
2023/01/26 01:09:56;;;;;;;3.10;1.77;;;;;;;-8.03;61.30;99224.56;4932245;28;20063;-65
2023/01/26 01:12:26;;;;;;;10.63;2.50;;;;;;;-8.05;61.76;99236.28;4930541;28;20465;-64
2023/01/26 01:14:57;;;;;;;5.32;2.03;;;;;;;-8.09;61.90;99234.44;4931042;28;20793;-62
2023/01/26 01:17:51;;;;;;;7.55;2.50;;;;;;;-8.04;61.23;99238.91;4929265;28;20512;-59
2023/01/26 01:20:22;;;;;;;5.68;2.20;;;;;;;-8.26;61.21;99221.94;4910101;28;20059;-65
2023/01/26 01:22:54;;;;;;;3.88;2.00;;;;;;;-8.22;61.03;99212.78;4929340;28;20055;-64
2023/01/26 01:25:24;;;;;;;8.13;2.20;;;;;;;-7.99;61.34;99230.59;4931238;28;20052;-62
2023/01/26 01:27:55;;;;;;;8.20;2.17;;;;;;;-7.83;61.88;99228.75;4930801;28;20124;-64
2023/01/26 01:30:25;;;;;;;10.30;2.15;;;;;;;-7.86;60.50;99227.78;4929150;28;20130;-61
2023/01/26 01:32:55;;;;;;;9.07;2.25;;;;;;;-7.85;60.74;99225.28;4930824;28;20047;-66
2023/01/26 01:35:26;;;;;;;7.30;2.22;;;;;;;-7.84;60.46;99227.03;4931145;28;20402;-62
2023/01/26 01:37:58;;;;;;;4.47;1.60;;;;;;;-7.85;59.92;99225.28;4931099;28;20043;-62
2023/01/26 01:40:29;;;;;;;7.00;2.63;;;;;;;-7.95;59.73;99233.31;4931672;28;20058;-62
2023/01/26 01:42:59;;;;;;;4.38;2.10;;;;;;;-7.91;59.63;99225.06;4930722;28;20048;-61
2023/01/26 01:45:43;;;;;;;6.80;2.10;;;;;;;-7.87;59.87;99221.81;4928389;28;20057;-64
2023/01/26 01:48:21;;;;;;;7.65;1.83;;;;;;;-7.94;58.96;99219.84;4925871;28;20063;-64
2023/01/26 01:50:55;;;;;;;7.65;2.45;;;;;;;-7.82;59.58;99220.31;4924436;28;20052;-63
2023/01/26 01:53:32;;;;;;;5.80;2.08;;;;;;;-7.67;59.65;99214.13;4934257;28;20071;-65
2023/01/26 01:56:06;;;;;;;6.70;2.22;;;;;;;-7.67;58.59;99214.13;4924638;28;20048;-62
2023/01/26 01:58:41;;;;;;;5.13;3.30;;;;;;;-7.69;59.37;99218.28;4935691;28;20192;-61
2023/01/26 02:01:13;;;;;;;6.38;2.00;;;;;;;-7.70;58.76;99221.63;4924486;28;20067;-63
2023/01/26 02:03:46;;;;;;;4.82;1.60;;;;;;;-7.72;58.91;99215.63;4934915;28;20143;-61
2023/01/26 02:06:20;;;;;;;10.35;1.98;;;;;;;-7.82;59.38;99215.25;4934619;28;20381;-65
2023/01/26 02:08:55;;;;;;;7.05;2.05;;;;;;;-7.80;59.19;99215.31;4926748;28;20049;-60
2023/01/26 02:11:30;;;;;;;3.17;1.52;;;;;;;-8.03;58.14;99194.13;4933491;28;20088;-64
2023/01/26 02:14:03;;;;;;;3.78;1.80;;;;;;;-7.98;59.14;99218.00;4929452;28;20063;-64
2023/01/26 02:16:33;;;;;;;6.30;2.25;;;;;;;-7.90;59.23;99206.50;4934818;28;20105;-63
2023/01/26 02:19:05;;;;;;;10.48;2.03;;;;;;;-8.04;59.35;99156.91;4934705;28;20409;-62
2023/01/26 02:21:35;;;;;;;5.18;1.90;;;;;;;-7.58;58.86;99219.56;4933968;28;20054;-65
2023/01/26 02:24:18;;;;;;;5.22;1.80;;;;;;;-7.69;58.28;99215.75;4933978;28;20044;-62
2023/01/26 02:26:50;;;;;;;8.65;2.25;;;;;;;-7.66;59.28;99205.69;4923648;28;21003;-61
2023/01/26 02:29:21;;;;;;;7.50;2.63;;;;;;;-7.56;58.53;99217.06;4926822;28;20122;-64
2023/01/26 02:31:52;;;;;;;4.38;2.05;;;;;;;-7.53;58.54;99213.00;4933692;28;20178;-65
2023/01/26 02:34:27;;;;;;;8.43;2.30;;;;;;;-7.37;58.67;99210.22;4934924;28;20056;-64
2023/01/26 02:36:59;;;;;;;8.70;2.38;;;;;;;-7.33;58.29;99206.16;4934516;28;20052;-65
2023/01/26 02:39:43;;;;;;;5.75;2.45;;;;;;;-7.25;57.61;99198.81;4933871;28;20064;-64
2023/01/26 02:45:03;;;;;;;3.83;2.17;;;;;;;-7.23;57.27;99181.97;4922738;28;20066;-62
2023/01/26 02:47:34;;;;;;;6.43;2.03;;;;;;;-7.11;57.22;99205.28;4934691;28;20062;-64
2023/01/26 02:50:03;;;;;;;6.95;1.70;;;;;;;-7.44;56.63;99208.28;4933769;28;20422;-63
2023/01/26 02:52:34;;;;;;;5.78;2.00;;;;;;;-7.61;57.40;99201.72;4934562;28;20132;-60
2023/01/26 02:55:24;;;;;;;5.10;2.08;;;;;;;-7.83;57.55;99208.47;4934589;28;20062;-63
2023/01/26 02:57:57;;;;;;;5.32;1.90;;;;;;;-8.66;58.28;99095.34;4921196;28;20130;-62
2023/01/26 03:00:29;;;;;;;7.22;2.20;;;;;;;-8.12;58.71;99203.88;4932475;28;20408;-62
2023/01/26 03:03:02;;;;;;;7.60;1.77;;;;;;;-8.12;58.64;99197.16;4928921;28;20049;-61
2023/01/26 03:05:32;;;;;;;4.70;1.98;;;;;;;-8.10;58.44;99197.22;4934395;28;20511;-64
2023/01/26 03:08:04;;;;;;;2.53;1.65;;;;;;;-8.14;59.12;99195.34;4934684;28;20560;-64
2023/01/26 03:10:35;;;;;;;2.47;1.52;;;;;;;-8.15;58.98;99188.56;4933414;28;20051;-64
2023/01/26 03:13:08;;;;;;;4.55;2.13;;;;;;;-8.15;58.59;99209.69;4933758;28;20135;-64
2023/01/26 03:15:51;;;;;;;3.33;1.63;;;;;;;-8.15;58.67;99208.84;4933290;28;20069;-62
2023/01/26 03:29:36;;;;;;;6.55;1.85;;;;;;;-8.48;59.39;99197.41;4919775;28;20047;-61
2023/01/26 03:32:07;;;;;;;8.10;1.75;;;;;;;-8.42;60.12;99194.25;4933068;28;20051;-61
2023/01/26 03:34:38;;;;;;;7.25;2.00;;;;;;;-8.44;59.85;99195.84;4933509;28;20055;-62
2023/01/26 03:37:08;;;;;;;2.92;1.60;;;;;;;-8.36;59.09;99189.44;4933421;28;20133;-63
2023/01/26 03:56:32;;;;;;;2.70;1.60;;;;;;;-8.56;59.51;99190.25;4916516;28;21141;-59
2023/01/26 03:59:08;;;;;;;2.30;1.33;;;;;;;-8.62;60.12;99190.03;4932569;28;20820;-61
2023/01/26 04:10:01;;;;;;;4.93;1.88;;;;;;;-8.32;60.09;99206.47;4864187;28;20547;-60
2023/01/26 04:12:32;;;;;;;3.83;1.73;;;;;;;-8.23;59.45;99222.88;4877235;28;20059;-62
2023/01/26 04:23:25;;;;;;;5.07;1.63;;;;;;;-9.27;59.61;99225.16;4866937;28;20045;-61
2023/01/26 04:25:56;;;;;;;3.22;1.70;;;;;;;-9.31;60.33;99225.81;4878057;28;20060;-63
2023/01/26 04:28:26;;;;;;;5.00;2.38;;;;;;;-9.31;59.28;99215.69;4874478;28;20112;-61
2023/01/26 04:30:57;;;;;;;5.38;1.77;;;;;;;-9.34;59.18;99220.63;4875742;28;20112;-62
2023/01/26 04:33:29;;;;;;;6.75;2.10;;;;;;;-9.21;59.00;99216.97;4874059;28;20061;-60
2023/01/26 04:36:04;;;;;;;3.92;1.70;;;;;;;-8.95;59.24;99230.81;4918130;28;20079;-61
2023/01/26 04:38:35;;;;;;;3.78;1.90;;;;;;;-8.85;58.66;99232.94;4921895;28;20478;-61
2023/01/26 04:41:06;;;;;;;3.78;2.10;;;;;;;-8.90;57.72;99214.16;4931252;28;20117;-60
2023/01/26 04:43:36;;;;;;;11.25;2.35;;;;;;;-8.85;58.36;99227.88;4932385;28;20047;-61
2023/01/26 04:46:08;;;;;;;12.65;2.08;;;;;;;-8.95;58.37;99230.81;4930118;28;20116;-61
2023/01/26 04:48:40;;;;;;;5.00;1.90;;;;;;;-9.01;58.01;99236.47;4928500;28;20387;-61
2023/01/26 04:51:13;;;;;;;2.40;1.55;;;;;;;-9.00;58.27;99232.28;4922681;28;20054;-60
2023/01/26 04:53:44;;;;;;;1.63;1.40;;;;;;;-9.06;58.77;99191.50;4931428;28;20052;-60
2023/01/26 04:56:21;;;;;;;5.30;1.70;;;;;;;-8.75;58.78;99224.09;4931683;28;20109;-62
2023/01/26 04:58:52;;;;;;;5.88;2.10;;;;;;;-9.00;57.49;99207.81;4921624;28;20059;-63
2023/01/26 05:01:23;;;;;;;3.47;1.45;;;;;;;-8.91;57.91;99246.22;4932201;28;20060;-63
2023/01/26 05:03:55;;;;;;;4.82;1.80;;;;;;;-9.03;58.52;99237.22;4931623;28;20043;-61
2023/01/26 05:06:25;;;;;;;1.85;1.40;;;;;;;-9.14;58.37;99244.28;4931565;28;20051;-62
2023/01/26 05:08:56;;;;;;;1.30;1.20;;;;;;;-9.39;59.02;99239.78;4930946;28;20380;-64
2023/01/26 05:11:26;;;;;;;4.68;1.70;;;;;;;-9.59;59.31;99254.88;4931028;28;20051;-62
2023/01/26 05:13:57;;;;;;;1.73;1.60;;;;;;;-9.69;59.66;99256.91;4931309;28;20048;-64
2023/01/26 05:16:28;;;;;;;2.33;1.58;;;;;;;-9.63;60.12;99262.28;4931919;28;20097;-61
2023/01/26 05:19:00;;;;;;;2.20;1.48;;;;;;;-9.72;59.20;99262.69;4931232;28;20134;-62
2023/01/26 05:21:31;;;;;;;2.28;1.70;;;;;;;-9.83;59.98;99263.84;4923281;28;20129;-61
2023/01/26 05:24:04;;;;;;;3.35;1.65;;;;;;;-9.95;60.32;99274.22;4932146;28;20048;-63
2023/01/26 05:26:43;;;;;;;2.42;1.77;;;;;;;-10.05;60.53;99272.91;4931133;28;20055;-61
2023/01/26 05:29:13;;;;;;;5.13;1.80;;;;;;;-10.02;60.63;99288.22;4921138;28;20438;-62
2023/01/26 05:31:44;;;;;;;9.07;2.00;;;;;;;-9.99;60.92;99283.31;4932003;28;20067;-60
2023/01/26 05:34:16;;;;;;;3.88;2.00;;;;;;;-9.93;60.42;99297.03;4931652;28;20068;-62
2023/01/26 05:36:46;;;;;;;3.22;1.67;;;;;;;-9.79;60.77;99296.91;4932067;28;20592;-64
2023/01/26 05:39:16;;;;;;;5.57;1.90;;;;;;;-9.78;60.12;99296.13;4930373;28;20109;-63
2023/01/26 05:41:47;;;;;;;3.80;1.75;;;;;;;-9.70;60.30;99301.56;4930722;28;20117;-63
2023/01/26 05:44:17;;;;;;;5.15;2.13;;;;;;;-9.85;59.57;99308.41;4930852;28;20067;-62
2023/01/26 05:46:48;;;;;;;4.30;1.75;;;;;;;-10.08;59.72;99318.25;4932120;28;20052;-62
2023/01/26 05:49:20;;;;;;;3.75;1.60;;;;;;;-10.27;60.63;99308.00;4930191;28;20051;-61
2023/01/26 05:51:50;;;;;;;2.92;1.80;;;;;;;-10.48;61.05;99320.44;4927408;28;20062;-59
2023/01/26 05:54:21;;;;;;;3.85;1.80;;;;;;;-10.63;61.62;99320.50;4934916;28;20072;-62
2023/01/26 05:56:52;;;;;;;5.68;1.67;;;;;;;-10.70;61.76;99323.50;4933429;28;20111;-61
2023/01/26 05:59:25;;;;;;;6.97;2.72;;;;;;;-10.76;62.14;99328.22;4931496;28;20052;-62
2023/01/26 06:01:56;;;;;;;7.32;1.98;;;;;;;-10.73;62.14;99323.31;4931083;28;20055;-61
2023/01/26 06:04:29;;;;;;;4.85;2.00;;;;;;;-10.78;62.00;99337.34;4931534;28;20133;-61
2023/01/26 06:07:00;;;;;;;2.25;1.58;;;;;;;-11.36;61.85;99252.72;4929601;28;20045;-61
2023/01/26 06:09:31;;;;;;;3.05;1.67;;;;;;;-10.98;62.39;99337.19;4931752;28;20053;-59
2023/01/26 06:12:02;;;;;;;4.32;1.77;;;;;;;-11.02;62.44;99342.84;4930780;28;20048;-59
2023/01/26 06:14:33;;;;;;;4.07;1.70;;;;;;;-11.04;62.10;99341.88;4930342;28;20048;-60
2023/01/26 06:17:03;;;;;;;4.18;2.10;;;;;;;-11.01;62.18;99346.22;4929438;28;20047;-62
2023/01/26 06:19:36;;;;;;;3.85;1.77;;;;;;;-11.04;62.37;99339.34;4930750;28;20062;-60
2023/01/26 06:22:09;;;;;;;2.92;1.83;;;;;;;-11.02;62.46;99345.34;4930431;28;20855;-61
2023/01/26 06:24:39;;;;;;;2.33;1.80;;;;;;;-11.09;62.07;99354.22;4929850;28;20601;-61
2023/01/26 06:27:13;;;;;;;16.20;4.63;;;;;;;-11.13;62.27;99352.34;4938407;28;20072;-61
2023/01/26 06:29:44;;;;;;;11.13;4.32;;;;;;;-11.13;62.43;99361.53;4929933;28;20062;-61
2023/01/26 06:32:15;;;;;;;25.00;8.68;;;;;;;-11.19;62.22;99366.28;4932962;28;20577;-62
2023/01/26 06:34:47;;;;;;;19.38;6.50;;;;;;;-11.71;62.28;99298.69;4934789;28;20058;-59
2023/01/26 06:37:18;;;;;;;9.20;3.97;;;;;;;-11.39;63.11;99363.50;4934890;28;20064;-59
2023/01/26 06:39:48;;;;;;;3.55;2.10;;;;;;;-11.43;63.34;99356.56;4933973;28;20063;-61
2023/01/26 06:42:19;;;;;;;5.70;2.20;;;;;;;-11.42;63.04;99362.47;4933639;28;20116;-60
2023/01/26 06:44:49;;;;;;;9.98;3.50;;;;;;;-11.74;63.02;99332.16;4933762;28;20043;-61
2023/01/26 06:47:21;;;;;;;3.83;2.33;;;;;;;-11.63;63.37;99363.03;4940915;28;20051;-60
2023/01/26 06:49:54;;;;;;;11.30;3.08;;;;;;;-11.66;63.38;99382.13;4932721;28;20056;-61
2023/01/26 06:52:30;;;;;;;20.48;4.20;;;;;;;-12.27;63.85;99284.66;4927551;28;20051;-59
2023/01/26 06:55:02;;;;;;;40.10;7.95;;;;;;;-11.73;63.88;99376.75;4923738;28;20057;-60
2023/01/26 06:57:32;;;;;;;24.83;4.93;;;;;;;-11.81;63.74;99382.97;4933730;28;20051;-60
2023/01/26 07:00:04;;;;;;;33.42;7.22;;;;;;;-11.90;64.35;99387.53;4933023;28;20048;-62
2023/01/26 07:02:35;;;;;;;29.75;7.70;;;;;;;-11.93;64.57;99387.31;4933192;28;20516;-61
2023/01/26 07:05:08;;;;;;;30.80;7.00;;;;;;;-11.98;64.29;99403.81;4933618;28;20056;-60
2023/01/26 07:07:41;;;;;;;24.45;6.10;;;;;;;-12.53;64.34;99330.06;4928037;28;20045;-60
2023/01/26 07:10:12;;;;;;;19.52;5.32;;;;;;;-12.17;64.76;99392.69;4934298;28;20049;-59
2023/01/26 07:12:43;;;;;;;13.27;4.63;;;;;;;-12.35;64.89;99391.59;4932957;28;20047;-59
2023/01/26 07:15:14;;;;;;;8.93;3.30;;;;;;;-12.58;65.38;99362.50;4934116;28;20379;-60
2023/01/26 07:17:45;;;;;;;9.35;4.13;;;;;;;-12.28;65.18;99423.03;4933159;28;20064;-60
2023/01/26 07:20:17;;;;;;;10.02;3.22;;;;;;;-12.36;64.90;99429.25;4932909;28;20059;-58
2023/01/26 07:22:48;;;;;;;10.88;3.40;;;;;;;-12.41;65.45;99426.44;4934230;28;20047;-59
2023/01/26 07:25:19;;;;;;;6.68;2.88;;;;;;;-12.53;65.25;99415.63;4933188;28;20043;-60
2023/01/26 07:27:55;;;;;;;2.70;2.10;;;;;;;-12.50;65.09;99446.03;4930858;27;20060;-59
2023/01/26 07:30:26;;;;;;;6.15;2.00;;;;;;;-12.60;65.31;99430.38;4931669;28;20756;-59
2023/01/26 07:33:00;;;;;;;3.50;2.10;;;;;;;-13.39;65.48;99324.88;4933512;28;20048;-60
2023/01/26 07:35:32;;;;;;;6.00;2.05;;;;;;;-12.73;65.55;99442.09;4924901;28;20090;-59
2023/01/26 07:38:05;;;;;;;12.20;2.08;;;;;;;-12.82;65.60;99452.47;4908235;28;20115;-58
2023/01/26 07:40:37;;;;;;;4.53;2.50;;;;;;;-12.95;66.04;99452.44;4928077;28;20484;-59
2023/01/26 07:43:08;;;;;;;5.88;2.28;;;;;;;-13.23;66.58;99423.03;4931960;28;20055;-60
2023/01/26 07:45:38;;;;;;;5.00;2.10;;;;;;;-13.04;66.27;99456.13;4932476;28;20496;-59
2023/01/26 07:48:09;;;;;;;4.47;2.00;;;;;;;-13.05;66.28;99459.44;4932872;28;20059;-60
2023/01/26 07:50:41;;;;;;;7.43;2.17;;;;;;;-13.07;66.59;99463.50;4930780;28;20057;-60
2023/01/26 07:53:11;;;;;;;4.93;2.33;;;;;;;-13.13;66.66;99465.59;4933217;28;20048;-59
2023/01/26 07:55:42;;;;;;;2.03;1.65;;;;;;;-13.18;67.50;99466.06;4933533;28;20048;-59
2023/01/26 07:58:13;;;;;;;3.45;2.10;;;;;;;-13.23;67.15;99445.66;4933018;28;20048;-59
2023/01/26 08:00:45;;;;;;;7.65;2.10;;;;;;;-13.22;67.00;99475.06;4933102;28;20096;-59
2023/01/26 08:03:16;;;;;;;5.15;1.92;;;;;;;-13.32;67.15;99477.81;4932794;28;20048;-58
2023/01/26 08:05:48;;;;;;;7.55;2.47;;;;;;;-13.55;67.15;99459.59;4932746;28;20048;-61
2023/01/26 08:08:21;;;;;;;4.90;2.40;;;;;;;-13.51;67.20;99481.59;4917638;28;20052;-61
2023/01/26 08:11:02;;;;;;;8.07;3.00;;;;;;;-13.77;67.01;99456.44;4921581;28;20589;-60
2023/01/26 08:16:40;;;;;;;6.75;2.88;;;;;;;-13.79;67.52;99493.13;4926932;28;20056;-60
2023/01/26 08:19:11;;;;;;;4.68;3.13;;;;;;;-13.85;67.36;99507.75;4923610;28;20440;-60
2023/01/26 08:21:43;;;;;;;7.88;3.00;;;;;;;-13.91;67.74;99499.06;4932198;28;20039;-59
2023/01/26 08:24:17;;;;;;;6.13;2.35;;;;;;;-13.87;68.08;99504.31;4931695;28;20052;-60
2023/01/26 08:26:47;;;;;;;8.20;2.30;;;;;;;-13.77;68.44;99522.59;4932149;28;20182;-59
2023/01/26 08:29:19;;;;;;;17.67;5.40;;;;;;;-13.92;68.28;99501.47;4932495;28;20060;-58
2023/01/26 08:32:37;;;;;;;6.70;3.25;;;;;;;-14.15;67.60;99527.50;4910369;28;20189;-59
2023/01/26 08:36:02;;;;;;;9.75;4.25;;;;;;;-14.58;67.50;99520.41;4920531;28;20059;-58
2023/01/26 08:38:58;;;;;;;18.67;6.43;;;;;;;-14.78;68.70;99521.50;4921341;28;20112;-59
2023/01/26 08:41:31;;;;;;;23.27;9.38;;;;;;;-15.08;68.90;99489.25;4931491;28;20063;-59
2023/01/26 08:44:17;;;;;;;31.98;13.27;;;;;;;-15.05;69.95;99524.53;4921708;28;20059;-58
2023/01/26 08:46:54;;;;;;;36.40;15.13;;;;;;;-15.32;70.06;99528.41;4922082;28;20389;-58
2023/01/26 08:49:27;;;;;;;16.25;7.57;;;;;;;-15.42;71.09;99531.91;4921182;28;20108;-58
2023/01/26 08:52:01;;;;;;;12.77;6.35;;;;;;;-15.47;70.99;99538.22;4931868;28;20605;-58
2023/01/26 08:54:42;;;;;;;26.33;11.07;;;;;;;-15.43;71.40;99532.66;4921029;28;20066;-58
2023/01/26 08:57:21;;;;;;;87.25;26.80;;;;;;;-15.78;70.91;99485.88;4922647;28;20129;-60
2023/01/26 08:59:52;;;;;;;21.75;8.07;;;;;;;-15.83;70.27;99539.72;4931513;28;20138;-59
2023/01/26 09:02:23;;;;;;;9.52;4.78;;;;;;;-16.15;71.54;99535.63;4931647;28;20067;-59
2023/01/26 09:04:54;;;;;;;9.70;4.10;;;;;;;-16.31;72.55;99540.25;4931851;28;20513;-60
2023/01/26 09:07:25;;;;;;;10.20;4.15;;;;;;;-16.26;73.44;99533.97;4931354;28;20048;-59
2023/01/26 09:09:57;;;;;;;3.63;3.17;;;;;;;-16.43;73.62;99504.28;4931522;28;20059;-58
2023/01/26 09:12:28;;;;;;;5.78;3.10;;;;;;;-16.15;73.97;99553.16;4932097;28;20085;-58
2023/01/26 09:14:58;;;;;;;7.43;3.80;;;;;;;-16.15;74.52;99543.16;4931122;28;20056;-59
2023/01/26 09:17:29;;;;;;;4.18;2.78;;;;;;;-16.13;74.48;99536.63;4930843;28;20055;-59
2023/01/26 09:19:59;;;;;;;4.03;3.20;;;;;;;-16.01;74.19;99551.72;4931062;28;20054;-59
2023/01/26 09:22:30;;;;;;;3.60;2.80;;;;;;;-16.18;73.69;99537.91;4929530;28;20097;-60
2023/01/26 09:25:05;;;;;;;6.03;3.53;;;;;;;-16.21;73.45;99557.69;4936449;28;20601;-59
2023/01/26 09:27:36;;;;;;;6.22;3.13;;;;;;;-16.43;72.97;99559.28;4931232;28;20063;-59
2023/01/26 09:30:08;;;;;;;5.97;2.42;;;;;;;-16.17;74.28;99553.78;4931592;28;20448;-59
2023/01/26 09:32:39;;;;;;;3.40;2.30;;;;;;;-16.28;73.53;99540.47;4931069;28;20070;-59
2023/01/26 09:35:10;;;;;;;3.08;2.20;;;;;;;-16.49;73.21;99548.81;4930600;28;20130;-60
2023/01/26 09:37:44;;;;;;;28.25;9.15;;;;;;;-16.54;73.66;99546.81;4931575;28;20068;-59
2023/01/26 09:40:22;;;;;;;4.10;2.70;;;;;;;-16.58;73.97;99544.84;4931328;28;20058;-59
2023/01/26 09:43:13;;;;;;;5.10;3.15;;;;;;;-16.88;74.12;99517.47;4919507;28;20734;-59
2023/01/26 09:45:52;;;;;;;4.55;2.47;;;;;;;-16.50;74.68;99542.94;4919624;28;20055;-59
2023/01/26 09:48:33;;;;;;;9.07;2.60;;;;;;;-16.62;74.72;99542.88;4920611;28;20058;-59
2023/01/26 09:51:08;;;;;;;3.63;2.80;;;;;;;-16.52;75.19;99544.47;4920547;28;20044;-59
2023/01/26 09:53:45;;;;;;;6.70;2.42;;;;;;;-16.47;75.13;99547.28;4930975;28;20702;-59
2023/01/26 09:56:24;;;;;;;8.95;3.80;;;;;;;-16.46;75.69;99549.06;4920066;28;20055;-59
2023/01/26 09:59:00;;;;;;;7.47;2.88;;;;;;;-16.30;75.78;99549.47;4921063;28;20059;-59
2023/01/26 10:01:37;;;;;;;5.55;3.28;;;;;;;-16.59;75.74;99488.09;4923903;28;20054;-59
2023/01/26 10:04:21;;;;;;;10.35;4.18;;;;;;;-17.25;75.31;99369.69;4929721;28;20064;-59
2023/01/26 10:06:54;;;;;;;7.95;3.15;;;;;;;-16.12;75.49;99548.41;4919420;28;20048;-59
2023/01/26 10:09:28;;;;;;;5.88;3.17;;;;;;;-15.94;76.57;99548.06;4932738;28;20051;-58
2023/01/26 10:12:03;;;;;;;11.40;4.00;;;;;;;-15.75;75.91;99550.31;4934155;28;20052;-58
2023/01/26 10:14:39;;;;;;;10.38;5.97;;;;;;;-15.70;75.59;99554.94;4924913;28;20132;-59
2023/01/26 10:17:17;;;;;;;12.02;4.78;;;;;;;-15.73;75.50;99543.78;4933289;28;20057;-60
2023/01/26 10:19:53;;;;;;;10.80;4.00;;;;;;;-15.54;75.21;99546.03;4934009;28;20058;-59
2023/01/26 10:22:35;;;;;;;10.95;3.55;;;;;;;-15.53;74.57;99552.75;4924604;28;20579;-60
2023/01/26 10:25:15;;;;;;;6.68;3.35;;;;;;;-15.71;73.88;99543.16;4923598;28;20051;-60
2023/01/26 10:27:47;;;;;;;5.78;2.55;;;;;;;-15.87;73.69;99550.28;4922794;28;20054;-58
2023/01/26 10:30:20;;;;;;;6.72;3.80;;;;;;;-15.93;73.94;99559.81;4934140;28;20071;-59
2023/01/26 10:32:53;;;;;;;10.95;4.25;;;;;;;-15.96;74.07;99554.56;4929791;28;20113;-59
2023/01/26 10:35:25;;;;;;;8.05;4.28;;;;;;;-16.15;73.25;99549.78;4934412;28;20518;-59
2023/01/26 10:37:57;;;;;;;10.02;5.32;;;;;;;-16.37;73.69;99559.75;4933520;28;20043;-59
2023/01/26 10:40:27;;;;;;;22.00;8.25;;;;;;;-16.44;74.03;99562.56;4933983;28;20482;-59
2023/01/26 10:43:00;;;;;;;38.33;16.25;;;;;;;-16.64;73.56;99554.38;4933568;28;20489;-60
2023/01/26 10:45:33;;;;;;;14.88;6.07;;;;;;;-16.79;73.68;99551.56;4927481;28;20581;-60
2023/01/26 10:48:06;;;;;;;6.15;4.10;;;;;;;-16.79;74.70;99543.19;4933818;28;20052;-60
2023/01/26 10:50:39;;;;;;;12.55;3.83;;;;;;;-17.11;74.41;99503.16;4934201;28;20051;-61
2023/01/26 10:53:36;;;;;;;14.77;4.40;;;;;;;-16.95;73.72;99556.06;4929964;28;20983;-59
2023/01/26 10:56:13;;;;;;;8.85;4.35;;;;;;;-17.02;74.38;99554.75;4918660;28;20139;-58
2023/01/26 10:58:50;;;;;;;9.90;3.20;;;;;;;-17.04;74.05;99563.72;4923301;28;20060;-58
2023/01/26 11:01:21;;;;;;;4.75;3.40;;;;;;;-17.23;73.71;99570.47;4929112;28;20053;-58
2023/01/26 11:04:06;;;;;;;9.35;3.78;;;;;;;-17.38;73.82;99561.75;4933362;28;20053;-58
2023/01/26 11:06:37;;;;;;;8.95;3.03;;;;;;;-17.25;74.45;99542.88;4923192;28;20048;-59
2023/01/26 11:09:17;;;;;;;4.97;3.10;;;;;;;-17.50;73.93;99527.53;4933414;28;20492;-59
2023/01/26 11:12:00;;;;;;;10.50;5.53;;;;;;;-17.26;74.54;99567.75;4923240;28;20201;-58
2023/01/26 11:14:35;;;;;;;33.95;13.63;;;;;;;-17.23;74.81;99553.00;4924413;28;20092;-58
2023/01/26 11:17:22;;;;;;;40.10;17.88;;;;;;;-17.08;74.89;99564.22;4932624;28;20047;-59
2023/01/26 11:20:08;;;;;;;8.00;5.80;;;;;;;-17.08;75.08;99559.22;4923227;28;20070;-60
2023/01/26 11:22:48;;;;;;;4.57;3.13;;;;;;;-17.00;75.06;99575.69;4923293;28;20067;-60
2023/01/26 11:25:26;;;;;;;9.75;3.85;;;;;;;-17.10;74.67;99580.69;4922333;28;20054;-58
2023/01/26 11:28:13;;;;;;;7.28;4.00;;;;;;;-17.32;74.88;99577.22;4923056;28;20129;-59
2023/01/26 11:30:58;;;;;;;6.50;3.90;;;;;;;-17.38;75.18;99584.22;4922161;28;20055;-60
2023/01/26 11:33:36;;;;;;;6.35;3.38;;;;;;;-17.41;75.38;99583.22;4923401;28;20051;-58
2023/01/26 11:36:14;;;;;;;2.53;2.33;;;;;;;-17.42;76.15;99571.50;4922169;28;20052;-59
2023/01/26 11:38:49;;;;;;;3.90;2.58;;;;;;;-17.21;76.47;99578.97;4922670;28;20131;-59
2023/01/26 11:41:34;;;;;;;21.08;7.18;;;;;;;-17.21;76.11;99596.47;4929305;28;20053;-58
2023/01/26 11:44:34;;;;;;;33.50;9.55;;;;;;;-17.26;75.81;99593.59;4922424;28;20060;-58
2023/01/26 11:47:22;;;;;;;19.40;8.15;;;;;;;-17.42;75.30;99583.97;4922240;28;20051;-59
2023/01/26 11:50:10;;;;;;;7.65;4.10;;;;;;;-17.33;75.78;99586.34;4922229;28;20058;-59
2023/01/26 11:52:51;;;;;;;7.80;3.40;;;;;;;-17.21;75.89;99592.34;4925925;28;20057;-58
2023/01/26 11:55:39;;;;;;;10.75;3.13;;;;;;;-17.17;76.01;99593.44;4922271;28;20485;-60
2023/01/26 11:58:28;;;;;;;5.13;2.90;;;;;;;-16.93;76.42;99598.69;4922038;28;20044;-59
2023/01/26 12:01:03;;;;;;;10.43;5.80;;;;;;;-16.90;76.63;99564.81;4921905;28;20051;-59
2023/01/26 12:03:43;;;;;;;8.45;4.43;;;;;;;-16.79;76.27;99593.19;4922535;28;20052;-58
2023/01/26 12:06:21;;;;;;;8.82;3.50;;;;;;;-17.42;74.99;99549.03;4923049;28;20058;-60
2023/01/26 12:09:00;;;;;;;6.90;3.65;;;;;;;-17.28;74.67;99580.09;4922081;28;20048;-59
2023/01/26 12:11:39;;;;;;;7.32;3.55;;;;;;;-17.42;74.81;99586.47;4922412;28;20181;-59
2023/01/26 12:14:21;;;;;;;7.03;3.00;;;;;;;-18.04;74.53;99499.84;4930015;28;20774;-59
2023/01/26 12:17:03;;;;;;;11.32;5.07;;;;;;;-17.92;75.11;99530.78;4906034;28;20127;-59
2023/01/26 12:19:58;;;;;;;10.45;4.80;;;;;;;-17.74;75.05;99585.41;4894672;28;20057;-59
2023/01/26 12:22:33;;;;;;;18.80;7.60;;;;;;;-17.78;75.55;99568.44;4895519;28;20059;-59
2023/01/26 12:25:23;;;;;;;9.93;5.60;;;;;;;-17.78;75.68;99573.44;4895606;28;20052;-58
2023/01/26 12:27:59;;;;;;;6.68;4.43;;;;;;;-17.83;75.64;99581.44;4894949;28;20147;-58
2023/01/26 12:30:39;;;;;;;8.75;4.10;;;;;;;-17.91;75.52;99582.44;4902493;28;20208;-59
2023/01/26 12:33:13;;;;;;;8.15;4.68;;;;;;;-18.09;76.17;99560.94;4895968;28;20058;-57
2023/01/26 12:36:09;;;;;;;5.00;3.25;;;;;;;-18.05;76.27;99575.41;4906007;28;20052;-57
2023/01/26 12:38:51;;;;;;;9.82;3.63;;;;;;;-18.13;76.83;99581.38;4886879;28;20057;-59
2023/01/26 12:41:33;;;;;;;3.97;3.00;;;;;;;-18.41;77.09;99534.16;4896217;28;20050;-59
2023/01/26 12:44:15;;;;;;;5.22;3.00;;;;;;;-18.13;77.06;99583.84;4894869;28;20337;-59
2023/01/26 12:47:02;;;;;;;4.75;3.40;;;;;;;-18.47;77.15;99533.63;4894864;28;20044;-59
2023/01/26 12:49:40;;;;;;;3.83;2.88;;;;;;;-18.27;77.02;99582.66;4893968;28;20053;-58
2023/01/26 12:52:35;;;;;;;5.28;3.55;;;;;;;-18.38;76.96;99580.91;4898203;28;20053;-58